Time,TemperatureF,DewpointF,PressureIn,WindDirection,WindDirectionDegrees,WindSpeedMPH,WindSpeedGustMPH,Humidity,HourlyPrecipIn,Conditions,Clouds,dailyrainin,SoftwareType,DateUTC
2013-07-21 00:12:00,60.6,30.6,28.29,North,8,0.0,0.0,32,0.00,,---,0.00,VWS V14.01,2013-07-21 07:12:00,
2013-07-21 00:15:00,60.6,30.6,28.29,North,8,0.0,0.0,32,0.00,,---,0.00,VWS V14.01,2013-07-21 07:15:00,
2013-07-21 00:20:00,60.6,30.6,28.29,North,8,0.0,0.0,32,0.00,,---,0.00,VWS V14.01,2013-07-21 07:20:00,
2013-07-21 00:25:00,60.6,30.6,28.29,North,8,0.0,0.0,32,0.00,,---,0.00,VWS V14.01,2013-07-21 07:25:00,
2013-07-21 00:31:00,60.6,30.6,28.29,North,8,0.0,0.0,32,0.00,,---,0.00,VWS V14.01,2013-07-21 07:31:00,
2013-07-21 00:36:00,60.6,30.6,28.29,North,8,0.0,0.0,32,0.00,,---,0.00,VWS V14.01,2013-07-21 07:36:00,
2013-07-21 00:41:00,60.6,30.6,28.29,North,8,0.0,0.0,32,0.00,,---,0.00,VWS V14.01,2013-07-21 07:41:00,
2013-07-21 00:47:00,60.6,30.6,28.29,North,8,0.0,0.0,32,0.00,,---,0.00,VWS V14.01,2013-07-21 07:47:00,
2013-07-21 00:52:00,60.6,30.6,28.29,North,8,0.0,0.0,32,0.00,,---,0.00,VWS V14.01,2013-07-21 07:52:00,
2013-07-21 00:57:00,60.6,30.6,28.29,North,8,0.0,0.0,32,0.00,,---,0.00,VWS V14.01,2013-07-21 07:57:00,
2013-07-21 01:02:00,60.6,30.6,28.29,North,8,0.0,0.0,32,0.00,,---,0.00,VWS V14.01,2013-07-21 08:02:00,
2013-07-21 01:08:00,57.6,31.5,28.29,North,8,0.0,0.0,37,0.00,,---,0.00,VWS V14.01,2013-07-21 08:08:00,
2013-07-21 01:13:00,57.7,32.3,28.29,North,8,0.0,0.0,38,0.00,,---,0.00,VWS V14.01,2013-07-21 08:13:00,
2013-07-21 01:18:00,57.7,32.3,28.29,North,8,0.0,0.0,38,0.00,,---,0.00,VWS V14.01,2013-07-21 08:18:00,
2013-07-21 01:23:00,57.7,32.3,28.29,North,8,0.0,0.0,38,0.00,,---,0.00,VWS V14.01,2013-07-21 08:23:00,
2013-07-21 01:29:00,57.7,32.3,28.29,North,8,0.0,0.0,38,0.00,,---,0.00,VWS V14.01,2013-07-21 08:29:00,
2013-07-21 01:34:00,57.4,33.3,28.29,North,8,0.0,0.0,40,0.00,,---,0.00,VWS V14.01,2013-07-21 08:34:00,
2013-07-21 01:39:00,57.2,32.5,28.29,North,8,0.0,0.0,39,0.00,,---,0.00,VWS V14.01,2013-07-21 08:39:00,
2013-07-21 01:44:00,57.2,32.5,28.29,North,8,0.0,0.0,39,0.00,,---,0.00,VWS V14.01,2013-07-21 08:44:00,
2013-07-21 01:50:00,57.2,32.5,28.29,North,8,0.0,0.0,39,0.00,,---,0.00,VWS V14.01,2013-07-21 08:50:00,
2013-07-21 01:55:00,57.2,32.5,28.29,North,8,0.0,0.0,39,0.00,,---,0.00,VWS V14.01,2013-07-21 08:55:00,
2013-07-21 02:00:00,57.2,32.5,28.29,North,8,0.0,0.0,39,0.00,,---,0.00,VWS V14.01,2013-07-21 09:00:00,
2013-07-21 02:05:00,57.2,32.5,28.29,North,8,0.0,0.0,39,0.00,,---,0.00,VWS V14.01,2013-07-21 09:05:00,
2013-07-21 02:11:00,57.2,32.5,28.29,North,8,0.0,0.0,39,0.00,,---,0.00,VWS V14.01,2013-07-21 09:11:00,
2013-07-21 02:16:00,57.2,32.5,28.29,North,8,0.0,0.0,39,0.00,,---,0.00,VWS V14.01,2013-07-21 09:16:00,
2013-07-21 02:21:00,57.2,32.5,28.29,North,8,0.0,0.0,39,0.00,,---,0.00,VWS V14.01,2013-07-21 09:21:00,
2013-07-21 02:26:00,55.4,33.3,28.29,North,8,0.0,0.0,43,0.00,,---,0.00,VWS V14.01,2013-07-21 09:26:00,
2013-07-21 02:32:00,55.4,33.3,28.29,North,8,0.0,0.0,43,0.00,,---,0.00,VWS V14.01,2013-07-21 09:32:00,
2013-07-21 02:37:00,55.4,33.3,28.29,North,8,0.0,0.0,43,0.00,,---,0.00,VWS V14.01,2013-07-21 09:37:00,
2013-07-21 02:42:00,55.4,33.3,28.29,North,8,0.0,0.0,43,0.00,,---,0.00,VWS V14.01,2013-07-21 09:42:00,
2013-07-21 02:48:00,55.4,33.3,28.29,North,8,0.0,0.0,43,0.00,,---,0.00,VWS V14.01,2013-07-21 09:48:00,
2013-07-21 02:54:00,55.8,32.4,28.29,East,96,0.0,0.0,41,0.00,,---,0.00,VWS V14.01,2013-07-21 09:54:00,
2013-07-21 02:59:00,55.6,32.3,28.29,East,96,0.0,0.0,41,0.00,,---,0.00,VWS V14.01,2013-07-21 09:59:00,
2013-07-21 03:05:00,55.6,32.3,28.29,East,96,0.0,0.0,41,0.00,,---,0.00,VWS V14.01,2013-07-21 10:05:00,
2013-07-21 03:10:00,55.6,32.3,28.29,East,96,0.0,0.0,41,0.00,,---,0.00,VWS V14.01,2013-07-21 10:10:00,
2013-07-21 03:15:00,55.6,32.3,28.29,East,96,0.0,0.0,41,0.00,,---,0.00,VWS V14.01,2013-07-21 10:15:00,
2013-07-21 03:20:00,55.6,32.3,28.29,East,96,0.0,0.0,41,0.00,,---,0.00,VWS V14.01,2013-07-21 10:20:00,
2013-07-21 03:26:00,55.6,32.3,28.29,East,96,0.0,0.0,41,0.00,,---,0.00,VWS V14.01,2013-07-21 10:26:00,
2013-07-21 03:31:00,54.0,34.2,28.29,East,96,0.0,0.0,47,0.00,,---,0.00,VWS V14.01,2013-07-21 10:31:00,
2013-07-21 03:36:00,54.0,34.2,28.29,East,96,0.0,0.0,47,0.00,,---,0.00,VWS V14.01,2013-07-21 10:36:00,
2013-07-21 03:41:00,54.0,34.2,28.29,East,96,0.0,0.0,47,0.00,,---,0.00,VWS V14.01,2013-07-21 10:41:00,
2013-07-21 03:47:00,54.0,34.2,28.26,East,96,0.0,0.0,47,0.00,,---,0.00,VWS V14.01,2013-07-21 10:47:00,
2013-07-21 03:52:00,54.0,34.2,28.26,East,96,0.0,0.0,47,0.00,,---,0.00,VWS V14.01,2013-07-21 10:52:00,
2013-07-21 03:57:00,54.0,34.2,28.26,East,96,0.0,0.0,47,0.00,,---,0.00,VWS V14.01,2013-07-21 10:57:00,
2013-07-21 04:03:00,54.0,34.2,28.26,East,96,0.0,0.0,47,0.00,,---,0.00,VWS V14.01,2013-07-21 11:03:00,
2013-07-21 04:08:00,54.0,34.2,28.26,East,82,0.0,0.0,47,0.00,,---,0.00,VWS V14.01,2013-07-21 11:08:00,
2013-07-21 04:13:00,54.0,34.2,28.26,East,82,0.0,0.0,47,0.00,,---,0.00,VWS V14.01,2013-07-21 11:13:00,
2013-07-21 04:18:00,54.0,34.2,28.26,East,82,0.0,0.0,47,0.00,,---,0.00,VWS V14.01,2013-07-21 11:18:00,
2013-07-21 04:23:00,54.0,34.2,28.26,East,82,0.0,0.0,47,0.00,,---,0.00,VWS V14.01,2013-07-21 11:23:00,
2013-07-21 04:29:00,54.0,34.2,28.26,East,82,0.0,0.0,47,0.00,,---,0.00,VWS V14.01,2013-07-21 11:29:00,
2013-07-21 04:34:00,54.7,29.6,28.26,East,82,0.0,0.0,38,0.00,,---,0.00,VWS V14.01,2013-07-21 11:34:00,
2013-07-21 04:39:00,54.7,29.6,28.26,East,82,0.0,0.0,38,0.00,,---,0.00,VWS V14.01,2013-07-21 11:39:00,
2013-07-21 04:44:00,55.2,29.4,28.26,East,81,0.0,0.0,37,0.00,,---,0.00,VWS V14.01,2013-07-21 11:44:00,
2013-07-21 04:50:00,54.9,29.1,28.26,East,81,0.0,0.0,37,0.00,,---,0.00,VWS V14.01,2013-07-21 11:50:00,
2013-07-21 04:55:00,54.9,29.1,28.26,East,81,0.0,0.0,37,0.00,,---,0.00,VWS V14.01,2013-07-21 11:55:00,
2013-07-21 05:00:00,54.9,29.1,28.26,East,81,0.0,0.0,37,0.00,,---,0.00,VWS V14.01,2013-07-21 12:00:00,
2013-07-21 05:05:00,54.9,29.1,28.26,East,81,0.0,0.0,37,0.00,,---,0.00,VWS V14.01,2013-07-21 12:05:00,
2013-07-21 05:11:00,54.9,29.1,28.26,SE,144,0.0,0.0,37,0.00,,---,0.00,VWS V14.01,2013-07-21 12:11:00,
2013-07-21 05:16:00,54.9,29.1,28.26,SE,144,0.0,0.0,37,0.00,,---,0.00,VWS V14.01,2013-07-21 12:16:00,
2013-07-21 05:21:00,54.9,29.1,28.26,SE,144,0.0,0.0,37,0.00,,---,0.00,VWS V14.01,2013-07-21 12:21:00,
2013-07-21 05:27:00,54.9,29.1,28.26,SE,144,0.0,0.0,37,0.00,,---,0.00,VWS V14.01,2013-07-21 12:27:00,
2013-07-21 05:32:00,51.6,32.1,28.29,SE,144,0.0,0.0,47,0.00,,---,0.00,VWS V14.01,2013-07-21 12:32:00,
2013-07-21 05:37:00,52.0,32.9,28.29,SE,144,0.0,0.0,48,0.00,,---,0.00,VWS V14.01,2013-07-21 12:37:00,
2013-07-21 05:42:00,51.6,34.1,28.29,SE,144,0.0,0.0,51,0.00,,---,0.00,VWS V14.01,2013-07-21 12:42:00,
2013-07-21 05:47:00,51.6,34.1,28.29,SE,144,0.0,0.0,51,0.00,,---,0.00,VWS V14.01,2013-07-21 12:47:00,
2013-07-21 05:53:00,51.6,34.6,28.29,SE,144,0.0,0.0,52,0.00,,---,0.00,VWS V14.01,2013-07-21 12:53:00,
2013-07-21 05:58:00,51.6,35.5,28.29,SE,144,0.0,0.0,54,0.00,,---,0.00,VWS V14.01,2013-07-21 12:58:00,
2013-07-21 06:03:00,51.8,35.7,28.29,SE,144,0.0,0.0,54,0.00,,---,0.00,VWS V14.01,2013-07-21 13:03:00,
2013-07-21 08:50:00,64.9,20.4,28.29,NNW,344,0.0,0.0,18,0.00,,---,0.00,VWS V14.01,2013-07-21 15:50:00,
2013-07-21 08:55:00,64.9,20.4,28.29,NNW,344,0.0,0.0,18,0.00,,---,0.00,VWS V14.01,2013-07-21 15:55:00,
2013-07-21 09:24:00,65.7,21.0,28.29,NE,50,0.0,0.0,18,0.00,,---,0.00,VWS V14.01,2013-07-21 16:24:00,
2013-07-21 09:31:00,67.1,24.7,28.29,East,83,0.0,0.0,20,0.00,,---,0.00,VWS V14.01,2013-07-21 16:31:00,
2013-07-21 09:36:00,67.1,24.7,28.29,East,83,0.0,0.0,20,0.00,,---,0.00,VWS V14.01,2013-07-21 16:36:00,
2013-07-21 09:41:00,67.1,24.7,28.29,NE,42,0.0,0.0,20,0.00,,---,0.00,VWS V14.01,2013-07-21 16:41:00,
2013-07-21 09:47:00,67.1,24.7,28.29,NE,42,0.0,0.0,20,0.00,,---,0.00,VWS V14.01,2013-07-21 16:47:00,
2013-07-21 09:52:00,69.3,22.6,28.29,East,85,0.0,0.0,17,0.00,,---,0.00,VWS V14.01,2013-07-21 16:52:00,
2013-07-21 09:57:00,69.3,22.6,28.29,NW,311,0.0,0.0,17,0.00,,---,0.00,VWS V14.01,2013-07-21 16:57:00,
2013-07-21 10:02:00,69.3,22.6,28.29,NW,311,0.0,0.0,17,0.00,,---,0.00,VWS V14.01,2013-07-21 17:02:00,
2013-07-21 10:08:00,70.2,18.8,28.29,WNW,290,0.0,0.0,14,0.00,,---,0.00,VWS V14.01,2013-07-21 17:08:00,
2013-07-21 10:13:00,70.5,19.1,28.29,WNW,290,0.0,0.0,14,0.00,,---,0.00,VWS V14.01,2013-07-21 17:13:00,
2013-07-21 10:18:00,70.7,19.2,28.29,WNW,290,0.0,0.0,14,0.00,,---,0.00,VWS V14.01,2013-07-21 17:18:00,
2013-07-21 10:23:00,70.7,19.2,28.29,North,350,0.0,0.0,14,0.00,,---,0.00,VWS V14.01,2013-07-21 17:23:00,
2013-07-21 10:29:00,70.7,19.2,28.26,North,350,0.0,0.0,14,0.00,,---,0.00,VWS V14.01,2013-07-21 17:29:00,
2013-07-21 10:34:00,70.2,18.8,28.26,NNW,331,2.2,3.1,14,0.00,,---,0.00,VWS V14.01,2013-07-21 17:34:00,
2013-07-21 10:39:00,70.3,18.9,28.29,NNW,331,2.2,2.2,14,0.00,,---,0.00,VWS V14.01,2013-07-21 17:39:00,
2013-07-21 10:44:00,70.5,19.1,28.29,NE,40,0.0,2.2,14,0.00,,---,0.00,VWS V14.01,2013-07-21 17:44:00,
2013-07-21 10:50:00,70.5,19.1,28.29,WNW,289,0.0,2.7,14,0.00,,---,0.00,VWS V14.01,2013-07-21 17:50:00,
2013-07-21 10:55:00,70.5,19.1,28.29,WNW,289,0.0,0.0,14,0.00,,---,0.00,VWS V14.01,2013-07-21 17:55:00,
2013-07-21 11:00:00,70.7,23.8,28.29,SW,236,0.0,0.0,17,0.00,,---,0.00,VWS V14.01,2013-07-21 18:00:00,
2013-07-21 11:06:00,70.7,23.8,28.29,SSE,164,0.0,0.0,17,0.00,,---,0.00,VWS V14.01,2013-07-21 18:06:00,
2013-07-21 11:11:00,73.2,21.2,28.29,NNW,337,0.0,0.0,14,0.00,,---,0.00,VWS V14.01,2013-07-21 18:11:00,
2013-07-21 11:16:00,73.2,21.2,28.29,WSW,254,0.0,0.0,14,0.00,,---,0.00,VWS V14.01,2013-07-21 18:16:00,
2013-07-21 11:21:00,73.2,21.2,28.29,WSW,254,0.0,0.0,14,0.00,,---,0.00,VWS V14.01,2013-07-21 18:21:00,
2013-07-21 11:26:00,73.6,19.8,28.29,WSW,254,0.0,0.0,13,0.00,,---,0.00,VWS V14.01,2013-07-21 18:26:00,
2013-07-21 11:32:00,73.2,21.2,28.29,ENE,63,0.0,0.0,14,0.00,,---,0.00,VWS V14.01,2013-07-21 18:32:00,
2013-07-21 11:37:00,73.2,21.2,28.29,WSW,248,0.0,0.0,14,0.00,,---,0.00,VWS V14.01,2013-07-21 18:37:00,
2013-07-21 11:42:00,73.2,21.2,28.29,SE,138,3.1,3.1,14,0.00,,---,0.00,VWS V14.01,2013-07-21 18:42:00,
2013-07-21 11:47:00,77.0,16.3,28.26,SE,134,5.4,5.4,10,0.00,,---,0.00,VWS V14.01,2013-07-21 18:47:00,
2013-07-21 11:53:00,76.8,16.2,28.26,SE,134,5.4,5.4,10,0.00,,---,0.00,VWS V14.01,2013-07-21 18:53:00,
2013-07-21 11:58:00,76.8,16.2,28.26,South,189,2.7,2.7,10,0.00,,---,0.00,VWS V14.01,2013-07-21 18:58:00,
2013-07-21 12:03:00,76.8,16.2,28.29,South,189,2.7,2.7,10,0.00,,---,0.00,VWS V14.01,2013-07-21 19:03:00,
2013-07-21 12:08:00,76.8,16.2,28.29,WSW,255,0.0,2.7,10,0.00,,---,0.00,VWS V14.01,2013-07-21 19:08:00,
2013-07-21 12:14:00,76.8,16.2,28.26,WSW,255,0.0,0.0,10,0.00,,---,0.00,VWS V14.01,2013-07-21 19:14:00,
2013-07-21 12:19:00,76.8,16.2,28.26,WSW,255,0.0,0.0,10,0.00,,---,0.00,VWS V14.01,2013-07-21 19:19:00,
2013-07-21 12:24:00,76.8,16.2,28.26,SSW,203,0.0,0.0,10,0.00,,---,0.00,VWS V14.01,2013-07-21 19:24:00,
2013-07-21 12:30:00,76.8,16.2,28.26,SSW,203,0.0,0.0,10,0.00,,---,0.00,VWS V14.01,2013-07-21 19:30:00,
2013-07-21 12:35:00,76.8,16.2,28.26,West,263,2.2,2.2,10,0.00,,---,0.00,VWS V14.01,2013-07-21 19:35:00,
2013-07-21 12:40:00,76.8,16.2,28.26,West,263,2.2,2.2,10,0.00,,---,0.00,VWS V14.01,2013-07-21 19:40:00,
2013-07-21 12:45:00,76.8,16.2,28.26,West,263,2.2,2.2,10,0.00,,---,0.00,VWS V14.01,2013-07-21 19:45:00,
2013-07-21 12:51:00,76.8,16.2,28.26,WNW,290,0.0,0.0,10,0.00,,---,0.00,VWS V14.01,2013-07-21 19:51:00,
2013-07-21 12:56:00,76.8,16.2,28.26,North,1,0.0,0.0,10,0.00,,---,0.00,VWS V14.01,2013-07-21 19:56:00,
2013-07-21 13:02:00,76.8,16.2,28.26,SE,144,0.0,0.0,10,0.00,,---,0.00,VWS V14.01,2013-07-21 20:02:00,
2013-07-21 13:07:00,76.8,16.2,28.26,SSW,194,0.0,0.0,10,0.00,,---,0.00,VWS V14.01,2013-07-21 20:07:00,
2013-07-21 13:12:00,76.8,16.2,28.26,SSW,194,0.0,0.0,10,0.00,,---,0.00,VWS V14.01,2013-07-21 20:12:00,
2013-07-21 13:18:00,76.8,16.2,28.26,SSW,194,0.0,0.0,10,0.00,,---,0.00,VWS V14.01,2013-07-21 20:18:00,
2013-07-21 13:23:00,76.8,16.2,28.26,SSE,159,0.0,0.0,10,0.00,,---,0.00,VWS V14.01,2013-07-21 20:23:00,
2013-07-21 13:28:00,76.8,16.2,28.26,SSE,159,0.0,0.0,10,0.00,,---,0.00,VWS V14.01,2013-07-21 20:28:00,
2013-07-21 13:33:00,76.8,16.2,28.26,SW,220,0.0,0.0,10,0.00,,---,0.00,VWS V14.01,2013-07-21 20:33:00,
2013-07-21 13:39:00,76.8,16.2,28.26,SW,220,0.0,0.0,10,0.00,,---,0.00,VWS V14.01,2013-07-21 20:39:00,
2013-07-21 13:44:00,76.8,16.2,28.26,SW,220,0.0,0.0,10,0.00,,---,0.00,VWS V14.01,2013-07-21 20:44:00,
2013-07-21 13:49:00,76.8,16.2,28.26,NW,307,4.0,4.0,10,0.00,,---,0.00,VWS V14.01,2013-07-21 20:49:00,
2013-07-21 13:54:00,76.8,16.2,28.26,NW,307,4.0,4.0,10,0.00,,---,0.00,VWS V14.01,2013-07-21 20:54:00,
2013-07-21 14:00:00,76.8,16.2,28.26,WNW,302,0.0,4.0,10,0.00,,---,0.00,VWS V14.01,2013-07-21 21:00:00,
2013-07-21 14:05:00,76.8,16.2,28.26,WNW,302,0.0,0.0,10,0.00,,---,0.00,VWS V14.01,2013-07-21 21:05:00,
2013-07-21 14:10:00,76.8,16.2,28.26,WNW,302,0.0,0.0,10,0.00,,---,0.00,VWS V14.01,2013-07-21 21:10:00,
2013-07-21 14:16:00,76.8,16.2,28.26,SSW,204,0.0,0.0,10,0.00,,---,0.00,VWS V14.01,2013-07-21 21:16:00,
2013-07-21 14:21:00,76.8,16.2,28.26,SSW,204,0.0,0.0,10,0.00,,---,0.00,VWS V14.01,2013-07-21 21:21:00,
2013-07-21 14:26:00,76.8,16.2,28.26,East,84,0.0,0.0,10,0.00,,---,0.00,VWS V14.01,2013-07-21 21:26:00,
2013-07-21 14:31:00,76.8,16.2,28.26,East,84,0.0,0.0,10,0.00,,---,0.00,VWS V14.01,2013-07-21 21:31:00,
2013-07-21 14:36:00,76.8,16.2,28.26,East,84,0.0,0.0,10,0.00,,---,0.00,VWS V14.01,2013-07-21 21:36:00,
2013-07-21 14:42:00,76.8,16.2,28.26,NNE,33,0.0,0.0,10,0.00,,---,0.00,VWS V14.01,2013-07-21 21:42:00,
2013-07-21 14:47:00,76.8,16.2,28.26,NNE,33,0.0,0.0,10,0.00,,---,0.00,VWS V14.01,2013-07-21 21:47:00,
2013-07-21 14:52:00,76.8,16.2,28.26,SSW,194,0.0,0.0,10,0.00,,---,0.00,VWS V14.01,2013-07-21 21:52:00,
2013-07-21 14:58:00,76.8,16.2,28.26,SSW,194,0.0,0.0,10,0.00,,---,0.00,VWS V14.01,2013-07-21 21:58:00,
2013-07-21 15:03:00,76.8,16.2,28.26,North,0,4.0,4.0,10,0.00,,---,0.00,VWS V14.01,2013-07-21 22:03:00,
2013-07-21 15:08:00,76.8,16.2,28.26,SW,231,0.0,0.0,10,0.00,,---,0.00,VWS V14.01,2013-07-21 22:08:00,
2013-07-21 15:13:00,76.8,16.2,28.26,SW,231,0.0,0.0,10,0.00,,---,0.00,VWS V14.01,2013-07-21 22:13:00,
2013-07-21 15:19:00,76.8,16.2,28.26,NNW,328,3.6,3.6,10,0.00,,---,0.00,VWS V14.01,2013-07-21 22:19:00,
2013-07-21 15:24:00,76.8,16.2,28.26,NNW,328,3.6,3.6,10,0.00,,---,0.00,VWS V14.01,2013-07-21 22:24:00,
2013-07-21 15:29:00,76.8,16.2,28.26,NNW,328,3.6,3.6,10,0.00,,---,0.00,VWS V14.01,2013-07-21 22:29:00,
2013-07-21 15:34:00,76.8,16.2,28.26,WNW,284,2.7,3.6,10,0.00,,---,0.00,VWS V14.01,2013-07-21 22:34:00,
2013-07-21 15:40:00,76.8,16.2,28.26,WNW,284,2.7,2.7,10,0.00,,---,0.00,VWS V14.01,2013-07-21 22:40:00,
2013-07-21 15:45:00,76.8,16.2,28.26,WNW,289,3.6,3.6,10,0.00,,---,0.00,VWS V14.01,2013-07-21 22:45:00,
2013-07-21 15:50:00,76.8,16.2,28.26,WNW,289,3.6,3.6,10,0.00,,---,0.00,VWS V14.01,2013-07-21 22:50:00,
2013-07-21 15:55:00,76.8,16.2,28.26,WNW,289,3.6,3.6,10,0.00,,---,0.00,VWS V14.01,2013-07-21 22:55:00,
2013-07-21 16:01:00,76.8,16.2,28.26,NE,39,0.0,0.0,10,0.00,,---,0.00,VWS V14.01,2013-07-21 23:01:00,
2013-07-21 16:06:00,77.7,16.9,28.26,NE,39,0.0,0.0,10,0.00,,---,0.00,VWS V14.01,2013-07-21 23:06:00,
2013-07-21 16:11:00,77.7,16.9,28.26,SSW,201,0.0,0.0,10,0.00,,---,0.00,VWS V14.01,2013-07-21 23:11:00,
2013-07-21 16:17:00,77.7,16.9,28.26,SSW,201,0.0,0.0,10,0.00,,---,0.00,VWS V14.01,2013-07-21 23:17:00,
2013-07-21 16:22:00,77.7,16.9,28.26,SSW,201,0.0,0.0,10,0.00,,---,0.00,VWS V14.01,2013-07-21 23:22:00,
2013-07-21 16:27:00,77.7,16.9,28.26,South,178,2.7,2.7,10,0.00,,---,0.00,VWS V14.01,2013-07-21 23:27:00,
2013-07-21 16:32:00,77.7,16.9,28.26,South,178,2.7,2.7,10,0.00,,---,0.00,VWS V14.01,2013-07-21 23:32:00,
2013-07-21 16:38:00,77.7,16.9,28.26,WNW,301,3.1,3.1,10,0.00,,---,0.00,VWS V14.01,2013-07-21 23:38:00,
2013-07-21 16:43:00,77.7,16.9,28.26,WNW,301,3.1,3.1,10,0.00,,---,0.00,VWS V14.01,2013-07-21 23:43:00,
2013-07-21 16:48:00,77.7,16.9,28.26,WNW,301,3.1,3.1,10,0.00,,---,0.00,VWS V14.01,2013-07-21 23:48:00,
2013-07-21 16:53:00,77.7,16.9,28.26,West,279,0.0,3.1,10,0.00,,---,0.00,VWS V14.01,2013-07-21 23:53:00,
2013-07-21 16:59:00,77.7,16.9,28.23,West,279,0.0,0.0,10,0.00,,---,0.00,VWS V14.01,2013-07-21 23:59:00,
2013-07-21 17:04:00,77.7,16.9,28.23,NNW,346,4.9,4.9,10,0.00,,---,0.00,VWS V14.01,2013-07-22 00:04:00,
2013-07-21 17:09:00,77.7,16.9,28.23,NNW,346,4.9,4.9,10,0.00,,---,0.00,VWS V14.01,2013-07-22 00:09:00,
2013-07-21 17:15:00,77.7,16.9,28.23,NNW,346,4.9,4.9,10,0.00,,---,0.00,VWS V14.01,2013-07-22 00:15:00,
2013-07-21 17:20:00,77.0,16.3,28.23,North,353,5.4,5.4,10,0.00,,---,0.00,VWS V14.01,2013-07-22 00:20:00,
2013-07-21 17:25:00,77.0,16.3,28.23,North,353,5.4,5.4,10,0.00,,---,0.00,VWS V14.01,2013-07-22 00:25:00,
2013-07-21 17:30:00,77.0,16.3,28.23,North,353,5.4,5.4,10,0.00,,---,0.00,VWS V14.01,2013-07-22 00:30:00,
2013-07-21 17:36:00,77.0,16.3,28.23,North,6,5.8,5.8,10,0.00,,---,0.00,VWS V14.01,2013-07-22 00:36:00,
2013-07-21 17:41:00,77.0,16.3,28.23,North,6,5.8,5.8,10,0.00,,---,0.00,VWS V14.01,2013-07-22 00:41:00,
2013-07-21 17:46:00,77.0,16.3,28.23,NNW,338,7.2,7.2,10,0.00,,---,0.00,VWS V14.01,2013-07-22 00:46:00,
2013-07-21 17:51:00,77.0,16.3,28.23,NNW,338,7.2,7.2,10,0.00,,---,0.00,VWS V14.01,2013-07-22 00:51:00,
2013-07-21 17:56:00,77.0,16.3,28.23,NNW,338,7.2,7.2,10,0.00,,---,0.00,VWS V14.01,2013-07-22 00:56:00,
2013-07-21 18:02:00,77.0,16.3,28.23,NNW,343,2.7,6.7,10,0.00,,---,0.00,VWS V14.01,2013-07-22 01:02:00,
2013-07-21 18:07:00,77.0,16.3,28.23,NNW,343,2.7,2.7,10,0.00,,---,0.00,VWS V14.01,2013-07-22 01:07:00,
2013-07-21 18:12:00,77.0,16.3,28.23,NNW,343,2.7,2.7,10,0.00,,---,0.00,VWS V14.01,2013-07-22 01:12:00,
2013-07-21 18:17:00,77.0,16.3,28.23,North,353,3.6,3.6,10,0.00,,---,0.00,VWS V14.01,2013-07-22 01:17:00,
2013-07-21 18:23:00,77.0,16.3,28.23,North,353,3.6,3.6,10,0.00,,---,0.00,VWS V14.01,2013-07-22 01:23:00,
2013-07-21 18:28:00,77.0,16.3,28.23,North,353,3.6,3.6,10,0.00,,---,0.00,VWS V14.01,2013-07-22 01:28:00,
2013-07-21 18:33:00,77.0,16.3,28.23,NNW,330,4.9,4.9,10,0.00,,---,0.00,VWS V14.01,2013-07-22 01:33:00,
2013-07-21 18:38:00,77.0,16.3,28.23,NNW,330,4.9,4.9,10,0.00,,---,0.00,VWS V14.01,2013-07-22 01:38:00,
2013-07-21 18:44:00,77.0,16.3,28.23,North,353,2.7,4.9,10,0.00,,---,0.00,VWS V14.01,2013-07-22 01:44:00,
2013-07-21 18:49:00,77.0,16.3,28.23,North,353,2.7,2.7,10,0.00,,---,0.00,VWS V14.01,2013-07-22 01:49:00,
2013-07-21 18:54:00,77.0,16.3,28.23,North,353,2.7,2.7,10,0.00,,---,0.00,VWS V14.01,2013-07-22 01:54:00,
2013-07-21 18:59:00,77.0,16.3,28.23,NNW,333,3.1,3.1,10,0.00,,---,0.00,VWS V14.01,2013-07-22 01:59:00,
2013-07-21 19:05:00,77.0,16.3,28.23,NNW,333,3.1,3.1,10,0.00,,---,0.00,VWS V14.01,2013-07-22 02:05:00,
2013-07-21 19:10:00,77.0,16.3,28.23,NW,314,3.6,3.6,10,0.00,,---,0.00,VWS V14.01,2013-07-22 02:10:00,
2013-07-21 19:15:00,77.0,16.3,28.23,NW,314,3.6,3.6,10,0.00,,---,0.00,VWS V14.01,2013-07-22 02:15:00,
2013-07-21 19:20:00,77.0,16.3,28.23,NW,314,3.6,3.6,10,0.00,,---,0.00,VWS V14.01,2013-07-22 02:20:00,
2013-07-21 19:26:00,77.0,16.3,28.23,NW,325,3.1,3.1,10,0.00,,---,0.00,VWS V14.01,2013-07-22 02:26:00,
2013-07-21 19:31:00,77.0,16.3,28.23,NW,325,3.1,3.1,10,0.00,,---,0.00,VWS V14.01,2013-07-22 02:31:00,
2013-07-21 19:36:00,77.0,16.3,28.23,NW,305,4.5,4.5,10,0.00,,---,0.00,VWS V14.01,2013-07-22 02:36:00,
2013-07-21 19:41:00,77.0,16.3,28.23,NW,305,4.5,4.5,10,0.00,,---,0.00,VWS V14.01,2013-07-22 02:41:00,
2013-07-21 19:47:00,77.0,16.3,28.23,NW,305,4.5,4.5,10,0.00,,---,0.00,VWS V14.01,2013-07-22 02:47:00,
2013-07-21 19:52:00,77.0,16.3,28.23,NW,308,4.9,4.9,10,0.00,,---,0.00,VWS V14.01,2013-07-22 02:52:00,
2013-07-21 19:57:00,77.0,16.3,28.23,NW,308,4.9,4.9,10,0.00,,---,0.00,VWS V14.01,2013-07-22 02:57:00,
2013-07-21 20:02:00,77.0,16.3,28.23,North,353,4.0,4.9,10,0.00,,---,0.00,VWS V14.01,2013-07-22 03:02:00,
2013-07-21 20:08:00,77.0,16.3,28.23,North,353,4.0,4.0,10,0.00,,---,0.00,VWS V14.01,2013-07-22 03:08:00,
2013-07-21 20:13:00,77.0,16.3,28.23,North,353,4.0,4.0,10,0.00,,---,0.00,VWS V14.01,2013-07-22 03:13:00,
2013-07-21 20:18:00,77.0,16.3,28.23,NW,316,3.1,3.1,10,0.00,,---,0.00,VWS V14.01,2013-07-22 03:18:00,
2013-07-21 20:23:00,77.0,16.3,28.23,NW,316,3.1,3.1,10,0.00,,---,0.00,VWS V14.01,2013-07-22 03:23:00,
2013-07-21 20:29:00,77.0,16.3,28.23,North,357,0.0,3.1,10,0.00,,---,0.00,VWS V14.01,2013-07-22 03:29:00,
2013-07-21 20:34:00,77.0,16.3,28.23,North,357,0.0,0.0,10,0.00,,---,0.00,VWS V14.01,2013-07-22 03:34:00,
2013-07-21 20:39:00,77.0,16.3,28.23,North,357,0.0,0.0,10,0.00,,---,0.00,VWS V14.01,2013-07-22 03:39:00,
2013-07-21 20:44:00,77.0,16.3,28.23,NNW,345,3.6,3.6,10,0.00,,---,0.00,VWS V14.01,2013-07-22 03:44:00,
2013-07-21 20:50:00,77.0,16.3,28.23,NNW,345,3.6,3.6,10,0.00,,---,0.00,VWS V14.01,2013-07-22 03:50:00,
2013-07-21 20:52:00,77.0,16.3,28.23,NNW,345,3.6,3.6,10,0.00,,---,0.00,VWS V14.01,2013-07-22 03:52:00,
2013-07-21 20:57:00,77.0,16.3,28.23,North,357,0.0,0.0,10,0.00,,---,0.00,VWS V14.01,2013-07-22 03:57:00,
2013-07-21 21:01:00,77.0,16.3,28.23,North,357,0.0,0.0,10,0.00,,---,0.00,VWS V14.01,2013-07-22 04:01:00,
2013-07-21 21:02:00,77.0,16.3,28.23,North,357,0.0,0.0,10,0.00,,---,0.00,VWS V14.01,2013-07-22 04:02:00,
2013-07-21 21:03:00,77.0,16.3,28.23,North,357,0.0,0.0,10,0.00,,---,0.00,VWS V14.01,2013-07-22 04:03:00,
2013-07-21 21:08:00,77.0,16.3,28.23,NNW,344,4.0,4.0,10,0.00,,---,0.00,VWS V14.01,2013-07-22 04:08:00,
2013-07-21 21:12:00,77.0,16.3,28.23,NNW,344,4.0,4.0,10,0.00,,---,0.00,VWS V14.01,2013-07-22 04:12:00,
2013-07-21 21:17:00,77.0,16.3,28.23,NNW,344,4.0,4.0,10,0.00,,---,0.00,VWS V14.01,2013-07-22 04:17:00,
2013-07-21 21:20:00,77.0,16.3,28.23,NNW,344,4.0,4.0,10,0.00,,---,0.00,VWS V14.01,2013-07-22 04:20:00,
2013-07-21 21:25:00,77.0,16.3,28.23,East,86,2.2,2.2,10,0.00,,---,0.00,VWS V14.01,2013-07-22 04:25:00,
2013-07-21 21:30:00,77.0,16.3,28.23,East,86,2.2,2.2,10,0.00,,---,0.00,VWS V14.01,2013-07-22 04:30:00,
2013-07-21 21:36:00,77.0,16.3,28.23,NNW,343,3.6,3.6,10,0.00,,---,0.00,VWS V14.01,2013-07-22 04:36:00,
2013-07-21 21:41:00,77.0,16.3,28.26,NNW,343,3.6,3.6,10,0.00,,---,0.00,VWS V14.01,2013-07-22 04:41:00,
2013-07-21 21:46:00,77.0,16.3,28.26,NNW,343,3.6,3.6,10,0.00,,---,0.00,VWS V14.01,2013-07-22 04:46:00,
2013-07-21 21:52:00,77.0,16.3,28.26,NNW,339,4.0,4.0,10,0.00,,---,0.00,VWS V14.01,2013-07-22 04:52:00,
2013-07-21 21:57:00,77.0,16.3,28.26,NNW,339,4.0,4.0,10,0.00,,---,0.00,VWS V14.01,2013-07-22 04:57:00,
2013-07-21 22:02:00,77.0,16.3,28.26,NNW,346,0.0,4.0,10,0.00,,---,0.00,VWS V14.01,2013-07-22 05:02:00,
2013-07-21 22:07:00,77.0,16.3,28.26,NNW,346,0.0,0.0,10,0.00,,---,0.00,VWS V14.01,2013-07-22 05:07:00,
2013-07-21 22:13:00,77.0,16.3,28.26,NNW,346,0.0,0.0,10,0.00,,---,0.00,VWS V14.01,2013-07-22 05:13:00,
2013-07-21 22:18:00,77.0,16.3,28.26,NNW,341,0.0,0.0,10,0.00,,---,0.00,VWS V14.01,2013-07-22 05:18:00,
2013-07-21 22:23:00,77.0,16.3,28.26,NNW,341,0.0,0.0,10,0.00,,---,0.00,VWS V14.01,2013-07-22 05:23:00,
2013-07-21 22:28:00,77.0,16.3,28.26,NW,323,0.0,0.0,10,0.00,,---,0.00,VWS V14.01,2013-07-22 05:28:00,
2013-07-21 22:34:00,77.0,16.3,28.26,NW,323,0.0,0.0,10,0.00,,---,0.00,VWS V14.01,2013-07-22 05:34:00,
2013-07-21 22:39:00,77.0,16.3,28.26,NW,323,0.0,0.0,10,0.00,,---,0.00,VWS V14.01,2013-07-22 05:39:00,
2013-07-21 22:44:00,77.0,16.3,28.26,West,281,0.0,0.0,10,0.00,,---,0.00,VWS V14.01,2013-07-22 05:44:00,
2013-07-21 22:49:00,77.0,16.3,28.26,West,281,0.0,0.0,10,0.00,,---,0.00,VWS V14.01,2013-07-22 05:49:00,
2013-07-21 22:55:00,77.0,16.3,28.26,West,281,0.0,0.0,10,0.00,,---,0.00,VWS V14.01,2013-07-22 05:55:00,
2013-07-21 23:00:00,77.0,16.3,28.26,West,281,0.0,0.0,10,0.00,,---,0.00,VWS V14.01,2013-07-22 06:00:00,
2013-07-21 23:05:00,77.0,16.3,28.26,West,281,0.0,0.0,10,0.00,,---,0.00,VWS V14.01,2013-07-22 06:05:00,
2013-07-21 23:10:00,77.0,16.3,28.26,West,281,0.0,0.0,10,0.00,,---,0.00,VWS V14.01,2013-07-22 06:10:00,
2013-07-21 23:16:00,77.0,16.3,28.26,SSW,202,0.0,0.0,10,0.00,,---,0.00,VWS V14.01,2013-07-22 06:16:00,
2013-07-21 23:21:00,77.0,16.3,28.26,SSW,202,0.0,0.0,10,0.00,,---,0.00,VWS V14.01,2013-07-22 06:21:00,
2013-07-21 23:26:00,77.0,16.3,28.26,SW,223,0.0,0.0,10,0.00,,---,0.00,VWS V14.01,2013-07-22 06:26:00,
2013-07-21 23:31:00,77.0,16.3,28.26,SW,223,0.0,0.0,10,0.00,,---,0.00,VWS V14.01,2013-07-22 06:31:00,
2013-07-21 23:37:00,77.0,16.3,28.26,SW,223,0.0,0.0,10,0.00,,---,0.00,VWS V14.01,2013-07-22 06:37:00,
2013-07-21 23:42:00,77.0,16.3,28.26,SW,223,0.0,0.0,10,0.00,,---,0.00,VWS V14.01,2013-07-22 06:42:00,
2013-07-21 23:47:00,77.0,16.3,28.26,SW,223,0.0,0.0,10,0.00,,---,0.00,VWS V14.01,2013-07-22 06:47:00,
2013-07-21 23:52:00,77.0,16.3,28.26,SW,223,0.0,0.0,10,0.00,,---,0.00,VWS V14.01,2013-07-22 06:52:00,
2013-07-21 23:58:00,77.0,16.3,28.26,SW,223,0.0,0.0,10,0.00,,---,0.00,VWS V14.01,2013-07-22 06:58:00,